sensor_id;sensor_type;location;lat;lon;timestamp;P1;durP1;ratioP1;P2;durP2;ratioP2
22191;SDS011;11261;52.456;10.850;2023-10-13T00:02:07;9.95;;;5.88;;
22191;SDS011;11261;52.456;10.850;2023-10-13T00:04:35;12.10;;;5.90;;
22191;SDS011;11261;52.456;10.850;2023-10-13T00:07:04;10.90;;;5.65;;
22191;SDS011;11261;52.456;10.850;2023-10-13T00:09:37;8.68;;;5.32;;
22191;SDS011;11261;52.456;10.850;2023-10-13T00:12:06;8.88;;;5.18;;
22191;SDS011;11261;52.456;10.850;2023-10-13T00:14:37;13.30;;;5.93;;
22191;SDS011;11261;52.456;10.850;2023-10-13T00:17:06;11.32;;;6.00;;
22191;SDS011;11261;52.456;10.850;2023-10-13T00:19:36;12.82;;;5.55;;
22191;SDS011;11261;52.456;10.850;2023-10-13T00:22:12;11.38;;;6.28;;
22191;SDS011;11261;52.456;10.850;2023-10-13T00:24:44;8.93;;;4.70;;
22191;SDS011;11261;52.456;10.850;2023-10-13T00:27:13;6.55;;;4.47;;
22191;SDS011;11261;52.456;10.850;2023-10-13T00:29:56;12.77;;;6.22;;
22191;SDS011;11261;52.456;10.850;2023-10-13T00:32:49;9.93;;;5.57;;
22191;SDS011;11261;52.456;10.850;2023-10-13T00:35:22;9.65;;;5.30;;
22191;SDS011;11261;52.456;10.850;2023-10-13T00:37:55;9.27;;;5.10;;
22191;SDS011;11261;52.456;10.850;2023-10-13T00:40:25;11.40;;;5.63;;
22191;SDS011;11261;52.456;10.850;2023-10-13T00:43:09;10.45;;;5.40;;
22191;SDS011;11261;52.456;10.850;2023-10-13T00:45:55;13.25;;;5.50;;
22191;SDS011;11261;52.456;10.850;2023-10-13T00:48:33;10.05;;;5.38;;
22191;SDS011;11261;52.456;10.850;2023-10-13T00:51:05;12.60;;;5.85;;
22191;SDS011;11261;52.456;10.850;2023-10-13T00:53:35;11.75;;;5.88;;
22191;SDS011;11261;52.456;10.850;2023-10-13T00:56:08;11.95;;;5.68;;
22191;SDS011;11261;52.456;10.850;2023-10-13T00:58:45;11.15;;;6.15;;
22191;SDS011;11261;52.456;10.850;2023-10-13T01:01:13;12.52;;;6.78;;
22191;SDS011;11261;52.456;10.850;2023-10-13T01:03:49;13.35;;;7.57;;
22191;SDS011;11261;52.456;10.850;2023-10-13T01:06:22;10.50;;;6.75;;
22191;SDS011;11261;52.456;10.850;2023-10-13T01:08:59;13.40;;;7.97;;
22191;SDS011;11261;52.456;10.850;2023-10-13T01:11:39;14.02;;;7.72;;
22191;SDS011;11261;52.456;10.850;2023-10-13T01:14:09;13.90;;;7.72;;
22191;SDS011;11261;52.456;10.850;2023-10-13T01:16:38;15.38;;;8.75;;
22191;SDS011;11261;52.456;10.850;2023-10-13T01:19:10;13.68;;;8.38;;
22191;SDS011;11261;52.456;10.850;2023-10-13T01:21:39;13.98;;;7.88;;
22191;SDS011;11261;52.456;10.850;2023-10-13T01:24:09;13.85;;;7.47;;
22191;SDS011;11261;52.456;10.850;2023-10-13T01:26:40;12.27;;;7.55;;
22191;SDS011;11261;52.456;10.850;2023-10-13T01:29:09;14.10;;;7.45;;
22191;SDS011;11261;52.456;10.850;2023-10-13T01:31:39;12.25;;;7.93;;
22191;SDS011;11261;52.456;10.850;2023-10-13T01:34:13;14.38;;;8.18;;
22191;SDS011;11261;52.456;10.850;2023-10-13T01:36:46;15.20;;;8.50;;
22191;SDS011;11261;52.456;10.850;2023-10-13T01:39:19;13.02;;;7.93;;
22191;SDS011;11261;52.456;10.850;2023-10-13T01:41:48;13.50;;;7.32;;
22191;SDS011;11261;52.456;10.850;2023-10-13T01:44:22;11.88;;;6.85;;
22191;SDS011;11261;52.456;10.850;2023-10-13T01:46:50;13.48;;;6.28;;
22191;SDS011;11261;52.456;10.850;2023-10-13T01:49:19;9.23;;;6.40;;
22191;SDS011;11261;52.456;10.850;2023-10-13T01:51:48;11.60;;;6.82;;
22191;SDS011;11261;52.456;10.850;2023-10-13T01:54:17;11.48;;;7.03;;
22191;SDS011;11261;52.456;10.850;2023-10-13T01:56:45;12.73;;;6.88;;
22191;SDS011;11261;52.456;10.850;2023-10-13T01:59:16;10.07;;;6.72;;
22191;SDS011;11261;52.456;10.850;2023-10-13T02:01:44;12.05;;;6.32;;
22191;SDS011;11261;52.456;10.850;2023-10-13T02:04:13;8.20;;;5.82;;
22191;SDS011;11261;52.456;10.850;2023-10-13T02:06:41;10.27;;;5.97;;
22191;SDS011;11261;52.456;10.850;2023-10-13T02:09:09;10.15;;;6.00;;
22191;SDS011;11261;52.456;10.850;2023-10-13T02:11:40;13.00;;;7.13;;
22191;SDS011;11261;52.456;10.850;2023-10-13T02:14:11;9.65;;;5.35;;
22191;SDS011;11261;52.456;10.850;2023-10-13T02:16:38;7.68;;;5.88;;
22191;SDS011;11261;52.456;10.850;2023-10-13T02:19:07;11.35;;;5.85;;
22191;SDS011;11261;52.456;10.850;2023-10-13T02:21:35;12.55;;;5.72;;
22191;SDS011;11261;52.456;10.850;2023-10-13T02:24:10;8.27;;;5.57;;
22191;SDS011;11261;52.456;10.850;2023-10-13T02:26:39;8.45;;;5.47;;
22191;SDS011;11261;52.456;10.850;2023-10-13T02:29:08;8.90;;;5.25;;
22191;SDS011;11261;52.456;10.850;2023-10-13T02:31:42;9.60;;;5.45;;
22191;SDS011;11261;52.456;10.850;2023-10-13T02:34:21;10.88;;;5.30;;
22191;SDS011;11261;52.456;10.850;2023-10-13T02:36:49;9.30;;;5.18;;
22191;SDS011;11261;52.456;10.850;2023-10-13T02:39:19;8.70;;;5.40;;
22191;SDS011;11261;52.456;10.850;2023-10-13T02:41:51;7.68;;;5.07;;
22191;SDS011;11261;52.456;10.850;2023-10-13T02:44:22;6.90;;;3.88;;
22191;SDS011;11261;52.456;10.850;2023-10-13T02:46:55;7.13;;;4.07;;
22191;SDS011;11261;52.456;10.850;2023-10-13T02:49:25;9.07;;;4.47;;
22191;SDS011;11261;52.456;10.850;2023-10-13T02:51:54;8.23;;;4.15;;
22191;SDS011;11261;52.456;10.850;2023-10-13T02:54:25;8.20;;;4.35;;
22191;SDS011;11261;52.456;10.850;2023-10-13T02:56:57;7.78;;;4.40;;
22191;SDS011;11261;52.456;10.850;2023-10-13T02:59:31;7.20;;;4.38;;
22191;SDS011;11261;52.456;10.850;2023-10-13T03:02:08;6.03;;;4.25;;
22191;SDS011;11261;52.456;10.850;2023-10-13T03:04:50;7.15;;;4.03;;
22191;SDS011;11261;52.456;10.850;2023-10-13T03:07:17;6.20;;;4.03;;
22191;SDS011;11261;52.456;10.850;2023-10-13T03:09:50;5.50;;;3.67;;
22191;SDS011;11261;52.456;10.850;2023-10-13T03:12:19;6.05;;;4.38;;
22191;SDS011;11261;52.456;10.850;2023-10-13T03:14:48;5.40;;;4.32;;
22191;SDS011;11261;52.456;10.850;2023-10-13T03:17:17;7.28;;;4.00;;
22191;SDS011;11261;52.456;10.850;2023-10-13T03:19:49;5.55;;;3.63;;
22191;SDS011;11261;52.456;10.850;2023-10-13T03:22:18;6.45;;;4.30;;
22191;SDS011;11261;52.456;10.850;2023-10-13T03:24:56;10.23;;;4.60;;
22191;SDS011;11261;52.456;10.850;2023-10-13T03:27:31;5.93;;;3.67;;
22191;SDS011;11261;52.456;10.850;2023-10-13T03:30:07;8.63;;;4.60;;
22191;SDS011;11261;52.456;10.850;2023-10-13T03:32:39;7.10;;;3.97;;
22191;SDS011;11261;52.456;10.850;2023-10-13T03:35:10;8.20;;;3.88;;
22191;SDS011;11261;52.456;10.850;2023-10-13T03:37:40;8.15;;;4.30;;
22191;SDS011;11261;52.456;10.850;2023-10-13T03:40:09;6.78;;;3.63;;
22191;SDS011;11261;52.456;10.850;2023-10-13T03:43:01;9.65;;;3.80;;
22191;SDS011;11261;52.456;10.850;2023-10-13T03:45:32;5.40;;;3.53;;
22191;SDS011;11261;52.456;10.850;2023-10-13T03:48:07;6.53;;;4.60;;
22191;SDS011;11261;52.456;10.850;2023-10-13T03:50:39;6.93;;;3.80;;
22191;SDS011;11261;52.456;10.850;2023-10-13T03:53:24;5.90;;;4.18;;
22191;SDS011;11261;52.456;10.850;2023-10-13T03:55:53;5.78;;;3.85;;
22191;SDS011;11261;52.456;10.850;2023-10-13T03:58:34;5.10;;;3.28;;
22191;SDS011;11261;52.456;10.850;2023-10-13T04:01:05;5.43;;;3.90;;
22191;SDS011;11261;52.456;10.850;2023-10-13T04:03:34;5.00;;;3.78;;
22191;SDS011;11261;52.456;10.850;2023-10-13T04:06:04;6.35;;;4.07;;
22191;SDS011;11261;52.456;10.850;2023-10-13T04:08:34;5.88;;;3.50;;
22191;SDS011;11261;52.456;10.850;2023-10-13T04:11:35;6.13;;;4.40;;
22191;SDS011;11261;52.456;10.850;2023-10-13T04:14:26;4.75;;;3.60;;
22191;SDS011;11261;52.456;10.850;2023-10-13T04:17:08;4.95;;;3.50;;
22191;SDS011;11261;52.456;10.850;2023-10-13T04:19:42;5.80;;;3.78;;
22191;SDS011;11261;52.456;10.850;2023-10-13T04:22:25;8.88;;;3.95;;
22191;SDS011;11261;52.456;10.850;2023-10-13T04:25:16;5.05;;;3.80;;
22191;SDS011;11261;52.456;10.850;2023-10-13T04:28:12;5.35;;;3.72;;
22191;SDS011;11261;52.456;10.850;2023-10-13T04:31:00;7.22;;;3.58;;
22191;SDS011;11261;52.456;10.850;2023-10-13T04:33:38;8.57;;;3.60;;
22191;SDS011;11261;52.456;10.850;2023-10-13T04:36:20;6.70;;;3.58;;
22191;SDS011;11261;52.456;10.850;2023-10-13T04:39:03;6.43;;;3.80;;
22191;SDS011;11261;52.456;10.850;2023-10-13T04:41:43;8.93;;;4.20;;
22191;SDS011;11261;52.456;10.850;2023-10-13T04:44:24;7.35;;;4.20;;
22191;SDS011;11261;52.456;10.850;2023-10-13T04:47:10;8.52;;;4.13;;
22191;SDS011;11261;52.456;10.850;2023-10-13T04:49:48;6.20;;;3.35;;
22191;SDS011;11261;52.456;10.850;2023-10-13T04:52:21;6.78;;;3.55;;
22191;SDS011;11261;52.456;10.850;2023-10-13T04:55:28;6.13;;;4.15;;
22191;SDS011;11261;52.456;10.850;2023-10-13T04:58:12;5.95;;;3.65;;
22191;SDS011;11261;52.456;10.850;2023-10-13T05:01:04;5.10;;;4.00;;
22191;SDS011;11261;52.456;10.850;2023-10-13T05:03:47;6.25;;;4.18;;
22191;SDS011;11261;52.456;10.850;2023-10-13T05:06:48;6.85;;;4.10;;
22191;SDS011;11261;52.456;10.850;2023-10-13T05:09:35;7.13;;;4.55;;
22191;SDS011;11261;52.456;10.850;2023-10-13T05:12:20;7.63;;;4.35;;
22191;SDS011;11261;52.456;10.850;2023-10-13T05:15:06;7.28;;;3.95;;
22191;SDS011;11261;52.456;10.850;2023-10-13T05:17:52;7.60;;;4.97;;
22191;SDS011;11261;52.456;10.850;2023-10-13T05:20:45;7.90;;;4.10;;
22191;SDS011;11261;52.456;10.850;2023-10-13T05:23:30;10.23;;;5.03;;
22191;SDS011;11261;52.456;10.850;2023-10-13T05:26:20;6.30;;;4.50;;
22191;SDS011;11261;52.456;10.850;2023-10-13T05:29:05;6.68;;;4.28;;
22191;SDS011;11261;52.456;10.850;2023-10-13T05:31:54;8.40;;;4.78;;
22191;SDS011;11261;52.456;10.850;2023-10-13T05:34:40;5.05;;;4.07;;
22191;SDS011;11261;52.456;10.850;2023-10-13T05:37:26;8.35;;;4.72;;
22191;SDS011;11261;52.456;10.850;2023-10-13T05:40:12;7.90;;;5.00;;
22191;SDS011;11261;52.456;10.850;2023-10-13T05:42:56;6.30;;;4.00;;
22191;SDS011;11261;52.456;10.850;2023-10-13T05:45:41;7.10;;;4.38;;
22191;SDS011;11261;52.456;10.850;2023-10-13T05:48:23;6.30;;;4.97;;
22191;SDS011;11261;52.456;10.850;2023-10-13T05:51:08;9.20;;;4.72;;
22191;SDS011;11261;52.456;10.850;2023-10-13T05:53:53;7.43;;;4.38;;
22191;SDS011;11261;52.456;10.850;2023-10-13T05:56:39;8.27;;;4.55;;
22191;SDS011;11261;52.456;10.850;2023-10-13T05:59:27;7.03;;;4.20;;
22191;SDS011;11261;52.456;10.850;2023-10-13T06:02:14;6.40;;;4.43;;
22191;SDS011;11261;52.456;10.850;2023-10-13T06:05:01;7.93;;;4.30;;
22191;SDS011;11261;52.456;10.850;2023-10-13T06:07:47;6.03;;;4.68;;
22191;SDS011;11261;52.456;10.850;2023-10-13T06:10:33;5.93;;;4.68;;
22191;SDS011;11261;52.456;10.850;2023-10-13T06:13:19;7.20;;;4.93;;
22191;SDS011;11261;52.456;10.850;2023-10-13T06:16:06;6.40;;;4.40;;
22191;SDS011;11261;52.456;10.850;2023-10-13T06:18:53;6.93;;;4.22;;
22191;SDS011;11261;52.456;10.850;2023-10-13T06:21:39;5.90;;;4.45;;
22191;SDS011;11261;52.456;10.850;2023-10-13T06:24:31;7.75;;;4.45;;
22191;SDS011;11261;52.456;10.850;2023-10-13T06:27:16;7.95;;;4.63;;
22191;SDS011;11261;52.456;10.850;2023-10-13T06:30:03;6.65;;;4.78;;
22191;SDS011;11261;52.456;10.850;2023-10-13T06:32:33;5.72;;;4.07;;
22191;SDS011;11261;52.456;10.850;2023-10-13T06:35:04;6.80;;;4.30;;
22191;SDS011;11261;52.456;10.850;2023-10-13T06:37:45;6.28;;;3.90;;
22191;SDS011;11261;52.456;10.850;2023-10-13T06:40:14;6.32;;;4.03;;
22191;SDS011;11261;52.456;10.850;2023-10-13T06:42:52;7.25;;;4.63;;
22191;SDS011;11261;52.456;10.850;2023-10-13T06:45:22;6.68;;;4.63;;
22191;SDS011;11261;52.456;10.850;2023-10-13T06:47:56;5.18;;;3.97;;
22191;SDS011;11261;52.456;10.850;2023-10-13T06:50:25;5.80;;;4.30;;
22191;SDS011;11261;52.456;10.850;2023-10-13T06:52:55;8.73;;;3.95;;
22191;SDS011;11261;52.456;10.850;2023-10-13T06:55:24;8.93;;;4.70;;
22191;SDS011;11261;52.456;10.850;2023-10-13T06:57:54;6.60;;;4.40;;
22191;SDS011;11261;52.456;10.850;2023-10-13T07:00:27;7.72;;;3.67;;
22191;SDS011;11261;52.456;10.850;2023-10-13T07:02:59;8.15;;;4.53;;
22191;SDS011;11261;52.456;10.850;2023-10-13T07:05:34;7.78;;;3.75;;
22191;SDS011;11261;52.456;10.850;2023-10-13T07:08:05;5.85;;;4.07;;
22191;SDS011;11261;52.456;10.850;2023-10-13T07:10:33;9.85;;;4.05;;
22191;SDS011;11261;52.456;10.850;2023-10-13T07:13:11;8.27;;;3.92;;
22191;SDS011;11261;52.456;10.850;2023-10-13T07:15:41;6.65;;;4.28;;
22191;SDS011;11261;52.456;10.850;2023-10-13T07:18:14;8.57;;;4.53;;
22191;SDS011;11261;52.456;10.850;2023-10-13T07:20:44;7.03;;;4.80;;
22191;SDS011;11261;52.456;10.850;2023-10-13T07:23:12;8.50;;;4.82;;
22191;SDS011;11261;52.456;10.850;2023-10-13T07:25:53;5.68;;;4.63;;
22191;SDS011;11261;52.456;10.850;2023-10-13T07:28:29;6.15;;;4.30;;
22191;SDS011;11261;52.456;10.850;2023-10-13T07:31:03;4.70;;;4.20;;
22191;SDS011;11261;52.456;10.850;2023-10-13T07:33:40;6.28;;;4.38;;
22191;SDS011;11261;52.456;10.850;2023-10-13T07:36:09;8.00;;;6.00;;
22191;SDS011;11261;52.456;10.850;2023-10-13T07:38:54;9.93;;;4.45;;
22191;SDS011;11261;52.456;10.850;2023-10-13T07:41:49;8.32;;;4.55;;
22191;SDS011;11261;52.456;10.850;2023-10-13T07:44:21;8.60;;;5.45;;
22191;SDS011;11261;52.456;10.850;2023-10-13T07:46:52;9.35;;;4.60;;
22191;SDS011;11261;52.456;10.850;2023-10-13T07:52:02;7.53;;;4.20;;
22191;SDS011;11261;52.456;10.850;2023-10-13T07:54:54;6.00;;;4.22;;
22191;SDS011;11261;52.456;10.850;2023-10-13T07:57:39;7.57;;;4.90;;
22191;SDS011;11261;52.456;10.850;2023-10-13T08:00:22;7.78;;;5.22;;
22191;SDS011;11261;52.456;10.850;2023-10-13T08:02:56;9.60;;;5.75;;
22191;SDS011;11261;52.456;10.850;2023-10-13T08:05:36;7.40;;;5.15;;
22191;SDS011;11261;52.456;10.850;2023-10-13T08:08:10;8.50;;;5.18;;
22191;SDS011;11261;52.456;10.850;2023-10-13T08:10:41;6.32;;;4.72;;
22191;SDS011;11261;52.456;10.850;2023-10-13T08:13:12;6.35;;;4.57;;
22191;SDS011;11261;52.456;10.850;2023-10-13T08:15:40;6.75;;;4.97;;
22191;SDS011;11261;52.456;10.850;2023-10-13T08:18:13;6.75;;;4.25;;
22191;SDS011;11261;52.456;10.850;2023-10-13T08:20:46;8.52;;;5.60;;
22191;SDS011;11261;52.456;10.850;2023-10-13T08:23:19;9.98;;;5.22;;
22191;SDS011;11261;52.456;10.850;2023-10-13T08:26:08;8.35;;;4.53;;
22191;SDS011;11261;52.456;10.850;2023-10-13T08:29:08;8.82;;;5.65;;
22191;SDS011;11261;52.456;10.850;2023-10-13T08:31:53;7.30;;;4.97;;
22191;SDS011;11261;52.456;10.850;2023-10-13T08:34:40;7.05;;;5.43;;
22191;SDS011;11261;52.456;10.850;2023-10-13T08:37:23;8.27;;;5.18;;
22191;SDS011;11261;52.456;10.850;2023-10-13T08:39:57;6.28;;;4.70;;
22191;SDS011;11261;52.456;10.850;2023-10-13T08:42:53;7.63;;;4.97;;
22191;SDS011;11261;52.456;10.850;2023-10-13T08:45:40;8.30;;;5.28;;
22191;SDS011;11261;52.456;10.850;2023-10-13T08:48:25;7.35;;;4.60;;
22191;SDS011;11261;52.456;10.850;2023-10-13T08:50:59;7.47;;;4.75;;
22191;SDS011;11261;52.456;10.850;2023-10-13T08:53:37;6.03;;;4.43;;
22191;SDS011;11261;52.456;10.850;2023-10-13T08:56:19;7.95;;;4.53;;
22191;SDS011;11261;52.456;10.850;2023-10-13T08:59:00;9.13;;;4.60;;
22191;SDS011;11261;52.456;10.850;2023-10-13T09:01:36;9.35;;;5.00;;
22191;SDS011;11261;52.456;10.850;2023-10-13T09:04:13;8.13;;;4.43;;
22191;SDS011;11261;52.456;10.850;2023-10-13T09:06:49;7.82;;;4.15;;
22191;SDS011;11261;52.456;10.850;2023-10-13T09:09:45;7.07;;;3.92;;
22191;SDS011;11261;52.456;10.850;2023-10-13T09:12:31;5.80;;;3.75;;
22191;SDS011;11261;52.456;10.850;2023-10-13T09:15:30;9.18;;;4.32;;
22191;SDS011;11261;52.456;10.850;2023-10-13T09:18:24;7.35;;;3.72;;
22191;SDS011;11261;52.456;10.850;2023-10-13T09:21:15;8.13;;;3.10;;
22191;SDS011;11261;52.456;10.850;2023-10-13T09:24:01;7.75;;;2.95;;
22191;SDS011;11261;52.456;10.850;2023-10-13T09:26:43;7.80;;;3.40;;
22191;SDS011;11261;52.456;10.850;2023-10-13T09:29:14;5.88;;;3.08;;
22191;SDS011;11261;52.456;10.850;2023-10-13T09:31:46;7.55;;;4.00;;
22191;SDS011;11261;52.456;10.850;2023-10-13T09:34:22;4.85;;;2.33;;
22191;SDS011;11261;52.456;10.850;2023-10-13T09:36:50;3.97;;;2.95;;
22191;SDS011;11261;52.456;10.850;2023-10-13T09:39:25;4.50;;;2.70;;
22191;SDS011;11261;52.456;10.850;2023-10-13T09:42:12;4.45;;;2.90;;
22191;SDS011;11261;52.456;10.850;2023-10-13T09:44:43;4.80;;;2.30;;
22191;SDS011;11261;52.456;10.850;2023-10-13T09:47:20;4.68;;;2.90;;
22191;SDS011;11261;52.456;10.850;2023-10-13T09:50:00;5.63;;;2.55;;
22191;SDS011;11261;52.456;10.850;2023-10-13T09:52:40;4.60;;;2.95;;
22191;SDS011;11261;52.456;10.850;2023-10-13T09:55:13;7.05;;;2.78;;
22191;SDS011;11261;52.456;10.850;2023-10-13T09:57:49;4.50;;;2.75;;
22191;SDS011;11261;52.456;10.850;2023-10-13T10:00:27;4.30;;;2.95;;
22191;SDS011;11261;52.456;10.850;2023-10-13T10:03:23;4.22;;;1.98;;
22191;SDS011;11261;52.456;10.850;2023-10-13T10:06:08;6.65;;;3.00;;
22191;SDS011;11261;52.456;10.850;2023-10-13T10:08:43;5.13;;;3.00;;
22191;SDS011;11261;52.456;10.850;2023-10-13T10:14:23;5.65;;;3.35;;
22191;SDS011;11261;52.456;10.850;2023-10-13T10:17:04;6.03;;;3.28;;
22191;SDS011;11261;52.456;10.850;2023-10-13T10:19:47;7.50;;;3.30;;
22191;SDS011;11261;52.456;10.850;2023-10-13T10:22:26;5.95;;;2.88;;
22191;SDS011;11261;52.456;10.850;2023-10-13T10:25:00;6.88;;;2.92;;
22191;SDS011;11261;52.456;10.850;2023-10-13T10:27:30;7.85;;;3.22;;
22191;SDS011;11261;52.456;10.850;2023-10-13T10:29:59;4.50;;;2.85;;
22191;SDS011;11261;52.456;10.850;2023-10-13T10:32:34;9.07;;;2.85;;
22191;SDS011;11261;52.456;10.850;2023-10-13T10:35:06;7.60;;;3.42;;
22191;SDS011;11261;52.456;10.850;2023-10-13T10:37:42;6.60;;;3.80;;
22191;SDS011;11261;52.456;10.850;2023-10-13T10:40:16;5.95;;;3.33;;
22191;SDS011;11261;52.456;10.850;2023-10-13T10:43:10;7.03;;;3.83;;
22191;SDS011;11261;52.456;10.850;2023-10-13T10:45:59;6.68;;;3.30;;
22191;SDS011;11261;52.456;10.850;2023-10-13T10:48:27;5.05;;;3.60;;
22191;SDS011;11261;52.456;10.850;2023-10-13T10:51:00;8.57;;;3.55;;
22191;SDS011;11261;52.456;10.850;2023-10-13T10:53:40;5.90;;;3.60;;
22191;SDS011;11261;52.456;10.850;2023-10-13T10:56:13;8.38;;;3.42;;
22191;SDS011;11261;52.456;10.850;2023-10-13T10:58:54;5.30;;;3.25;;
22191;SDS011;11261;52.456;10.850;2023-10-13T11:01:24;7.32;;;3.88;;
22191;SDS011;11261;52.456;10.850;2023-10-13T11:04:01;8.85;;;3.78;;
22191;SDS011;11261;52.456;10.850;2023-10-13T11:06:44;6.65;;;3.17;;
22191;SDS011;11261;52.456;10.850;2023-10-13T11:09:14;7.28;;;3.83;;
22191;SDS011;11261;52.456;10.850;2023-10-13T11:12:08;7.80;;;3.85;;
22191;SDS011;11261;52.456;10.850;2023-10-13T11:14:43;10.23;;;3.63;;
22191;SDS011;11261;52.456;10.850;2023-10-13T11:17:19;9.30;;;3.50;;
22191;SDS011;11261;52.456;10.850;2023-10-13T11:19:51;7.38;;;3.08;;
22191;SDS011;11261;52.456;10.850;2023-10-13T11:22:21;9.15;;;3.85;;
22191;SDS011;11261;52.456;10.850;2023-10-13T11:25:08;8.02;;;4.10;;
22191;SDS011;11261;52.456;10.850;2023-10-13T11:27:38;15.02;;;4.00;;
22191;SDS011;11261;52.456;10.850;2023-10-13T11:30:25;5.53;;;3.83;;
22191;SDS011;11261;52.456;10.850;2023-10-13T11:32:59;7.13;;;3.67;;
22191;SDS011;11261;52.456;10.850;2023-10-13T11:35:29;6.75;;;3.22;;
22191;SDS011;11261;52.456;10.850;2023-10-13T11:38:15;12.00;;;3.72;;
22191;SDS011;11261;52.456;10.850;2023-10-13T11:40:52;9.38;;;3.47;;
22191;SDS011;11261;52.456;10.850;2023-10-13T11:43:36;6.32;;;3.65;;
22191;SDS011;11261;52.456;10.850;2023-10-13T11:46:21;11.07;;;4.07;;
22191;SDS011;11261;52.456;10.850;2023-10-13T11:49:13;8.20;;;3.63;;
22191;SDS011;11261;52.456;10.850;2023-10-13T11:51:46;8.35;;;3.83;;
22191;SDS011;11261;52.456;10.850;2023-10-13T11:54:15;6.47;;;3.95;;
22191;SDS011;11261;52.456;10.850;2023-10-13T11:56:46;9.27;;;3.72;;
22191;SDS011;11261;52.456;10.850;2023-10-13T11:59:14;9.00;;;2.75;;
22191;SDS011;11261;52.456;10.850;2023-10-13T12:01:49;10.63;;;3.53;;
22191;SDS011;11261;52.456;10.850;2023-10-13T12:04:35;10.85;;;3.80;;
22191;SDS011;11261;52.456;10.850;2023-10-13T12:07:10;9.35;;;3.30;;
22191;SDS011;11261;52.456;10.850;2023-10-13T12:09:48;6.95;;;3.90;;
22191;SDS011;11261;52.456;10.850;2023-10-13T12:12:33;5.53;;;3.08;;
22191;SDS011;11261;52.456;10.850;2023-10-13T12:15:09;8.63;;;3.58;;
22191;SDS011;11261;52.456;10.850;2023-10-13T12:17:43;8.05;;;3.70;;
22191;SDS011;11261;52.456;10.850;2023-10-13T12:20:12;9.70;;;3.65;;
22191;SDS011;11261;52.456;10.850;2023-10-13T12:22:59;5.65;;;3.20;;
22191;SDS011;11261;52.456;10.850;2023-10-13T12:25:37;13.68;;;3.83;;
22191;SDS011;11261;52.456;10.850;2023-10-13T12:28:22;9.27;;;4.35;;
22191;SDS011;11261;52.456;10.850;2023-10-13T12:30:54;10.30;;;3.67;;
22191;SDS011;11261;52.456;10.850;2023-10-13T12:33:25;8.73;;;3.50;;
22191;SDS011;11261;52.456;10.850;2023-10-13T12:36:03;5.60;;;3.35;;
22191;SDS011;11261;52.456;10.850;2023-10-13T12:38:36;12.55;;;3.65;;
22191;SDS011;11261;52.456;10.850;2023-10-13T12:41:18;8.93;;;3.35;;
22191;SDS011;11261;52.456;10.850;2023-10-13T12:44:09;11.10;;;3.95;;
22191;SDS011;11261;52.456;10.850;2023-10-13T12:46:55;9.10;;;4.00;;
22191;SDS011;11261;52.456;10.850;2023-10-13T12:49:42;9.07;;;3.58;;
22191;SDS011;11261;52.456;10.850;2023-10-13T12:52:31;10.07;;;4.00;;
22191;SDS011;11261;52.456;10.850;2023-10-13T12:55:00;9.48;;;3.30;;
22191;SDS011;11261;52.456;10.850;2023-10-13T12:57:36;7.30;;;3.17;;
22191;SDS011;11261;52.456;10.850;2023-10-13T13:00:11;5.72;;;2.42;;
22191;SDS011;11261;52.456;10.850;2023-10-13T13:02:50;6.40;;;3.75;;
22191;SDS011;11261;52.456;10.850;2023-10-13T13:05:24;11.77;;;4.10;;
22191;SDS011;11261;52.456;10.850;2023-10-13T13:07:56;9.45;;;3.90;;
22191;SDS011;11261;52.456;10.850;2023-10-13T13:10:24;10.93;;;3.92;;
22191;SDS011;11261;52.456;10.850;2023-10-13T13:13:05;8.48;;;4.25;;
22191;SDS011;11261;52.456;10.850;2023-10-13T13:15:33;8.88;;;3.92;;
22191;SDS011;11261;52.456;10.850;2023-10-13T13:18:02;11.00;;;4.35;;
22191;SDS011;11261;52.456;10.850;2023-10-13T13:20:39;6.82;;;2.80;;
22191;SDS011;11261;52.456;10.850;2023-10-13T13:23:20;7.05;;;3.40;;
22191;SDS011;11261;52.456;10.850;2023-10-13T13:25:53;6.80;;;3.55;;
22191;SDS011;11261;52.456;10.850;2023-10-13T13:28:24;15.82;;;3.53;;
22191;SDS011;11261;52.456;10.850;2023-10-13T13:30:56;11.48;;;3.65;;
22191;SDS011;11261;52.456;10.850;2023-10-13T13:33:24;10.93;;;4.10;;
22191;SDS011;11261;52.456;10.850;2023-10-13T13:35:54;10.18;;;3.72;;
22191;SDS011;11261;52.456;10.850;2023-10-13T13:38:26;5.13;;;3.15;;
22191;SDS011;11261;52.456;10.850;2023-10-13T13:40:58;10.38;;;3.08;;
22191;SDS011;11261;52.456;10.850;2023-10-13T13:43:28;8.20;;;3.50;;
22191;SDS011;11261;52.456;10.850;2023-10-13T13:46:05;7.65;;;3.78;;
22191;SDS011;11261;52.456;10.850;2023-10-13T13:48:37;7.43;;;3.65;;
22191;SDS011;11261;52.456;10.850;2023-10-13T13:51:07;10.48;;;3.95;;
22191;SDS011;11261;52.456;10.850;2023-10-13T13:53:41;11.38;;;3.45;;
22191;SDS011;11261;52.456;10.850;2023-10-13T13:56:15;6.70;;;2.45;;
22191;SDS011;11261;52.456;10.850;2023-10-13T13:58:45;6.20;;;3.17;;
22191;SDS011;11261;52.456;10.850;2023-10-13T14:01:14;16.20;;;4.32;;
22191;SDS011;11261;52.456;10.850;2023-10-13T14:03:46;11.00;;;3.97;;
22191;SDS011;11261;52.456;10.850;2023-10-13T14:06:19;3.75;;;2.28;;
22191;SDS011;11261;52.456;10.850;2023-10-13T14:08:50;7.15;;;3.85;;
22191;SDS011;11261;52.456;10.850;2023-10-13T14:11:22;11.02;;;4.32;;
22191;SDS011;11261;52.456;10.850;2023-10-13T14:14:05;12.50;;;3.88;;
22191;SDS011;11261;52.456;10.850;2023-10-13T14:16:39;9.48;;;3.33;;
22191;SDS011;11261;52.456;10.850;2023-10-13T14:19:12;11.05;;;3.97;;
22191;SDS011;11261;52.456;10.850;2023-10-13T14:21:47;9.27;;;3.78;;
22191;SDS011;11261;52.456;10.850;2023-10-13T14:24:20;10.13;;;4.20;;
22191;SDS011;11261;52.456;10.850;2023-10-13T14:26:54;9.52;;;3.47;;
22191;SDS011;11261;52.456;10.850;2023-10-13T14:29:22;12.30;;;2.70;;
22191;SDS011;11261;52.456;10.850;2023-10-13T14:31:53;9.35;;;4.05;;
22191;SDS011;11261;52.456;10.850;2023-10-13T14:34:21;9.05;;;3.92;;
22191;SDS011;11261;52.456;10.850;2023-10-13T14:36:51;8.65;;;3.72;;
22191;SDS011;11261;52.456;10.850;2023-10-13T14:39:21;9.95;;;2.80;;
22191;SDS011;11261;52.456;10.850;2023-10-13T14:41:56;8.52;;;3.70;;
22191;SDS011;11261;52.456;10.850;2023-10-13T14:44:26;8.15;;;4.70;;
22191;SDS011;11261;52.456;10.850;2023-10-13T14:46:55;10.63;;;4.13;;
22191;SDS011;11261;52.456;10.850;2023-10-13T14:49:23;12.02;;;4.03;;
22191;SDS011;11261;52.456;10.850;2023-10-13T14:51:53;11.10;;;3.78;;
22191;SDS011;11261;52.456;10.850;2023-10-13T14:54:22;8.75;;;3.35;;
22191;SDS011;11261;52.456;10.850;2023-10-13T14:57:00;8.57;;;3.13;;
22191;SDS011;11261;52.456;10.850;2023-10-13T14:59:29;10.80;;;2.85;;
22191;SDS011;11261;52.456;10.850;2023-10-13T15:02:00;6.10;;;3.42;;
22191;SDS011;11261;52.456;10.850;2023-10-13T15:04:29;11.85;;;3.90;;
22191;SDS011;11261;52.456;10.850;2023-10-13T15:07:01;8.25;;;3.22;;
22191;SDS011;11261;52.456;10.850;2023-10-13T15:09:29;7.53;;;3.47;;
22191;SDS011;11261;52.456;10.850;2023-10-13T15:11:58;8.75;;;3.80;;
22191;SDS011;11261;52.456;10.850;2023-10-13T15:14:31;10.43;;;4.75;;
22191;SDS011;11261;52.456;10.850;2023-10-13T15:17:03;10.20;;;4.07;;
22191;SDS011;11261;52.456;10.850;2023-10-13T15:19:32;7.10;;;3.67;;
22191;SDS011;11261;52.456;10.850;2023-10-13T15:22:06;8.15;;;4.30;;
22191;SDS011;11261;52.456;10.850;2023-10-13T15:24:43;10.35;;;3.88;;
22191;SDS011;11261;52.456;10.850;2023-10-13T15:27:24;12.80;;;4.30;;
22191;SDS011;11261;52.456;10.850;2023-10-13T15:29:55;9.98;;;4.00;;
22191;SDS011;11261;52.456;10.850;2023-10-13T15:32:25;10.02;;;3.70;;